createdAt,value
2019-02-23T00:08:07.406Z,6.20
2019-02-23T00:16:14.490Z,6.10
2019-02-23T00:20:18.226Z,6.10
2019-02-23T00:28:25.542Z,6.00
2019-02-23T00:32:29.534Z,5.90
2019-02-23T00:36:33.277Z,5.80
2019-02-23T00:48:43.622Z,5.70
2019-02-23T00:52:47.346Z,5.60
2019-02-23T01:00:54.366Z,5.40
2019-02-23T01:04:58.927Z,5.40
2019-02-23T01:09:02.835Z,5.40
2019-02-23T01:13:06.559Z,5.20
2019-02-23T01:37:27.502Z,4.90
2019-02-23T01:45:42.056Z,4.80
2019-02-23T01:49:41.458Z,4.70
2019-02-23T02:22:09.667Z,4.30
2019-02-23T02:26:13.390Z,4.20
2019-02-23T02:34:20.414Z,4.10
2019-02-23T03:06:47.221Z,3.90
2019-02-23T03:14:54.243Z,3.70
2019-02-23T03:18:57.963Z,3.70
2019-02-23T03:27:05.342Z,3.60
2019-02-23T03:43:18.959Z,3.50
2019-02-23T03:55:29.435Z,3.30
2019-02-23T04:03:36.447Z,3.20
2019-02-23T04:27:58.862Z,2.90
2019-02-23T04:36:06.138Z,2.90
2019-02-23T04:40:09.950Z,2.90
2019-02-23T04:48:16.972Z,2.80
2019-02-23T05:12:37.587Z,2.80
2019-02-23T05:16:41.306Z,2.80
2019-02-23T05:24:48.748Z,2.80
2019-02-23T05:28:52.977Z,2.70
2019-02-23T05:32:56.994Z,2.70
2019-02-23T05:37:00.731Z,2.70
2019-02-23T05:53:15.030Z,2.80
2019-02-23T06:05:25.590Z,2.70
2019-02-23T06:13:32.714Z,2.70
2019-02-23T06:29:48.695Z,2.80
2019-02-23T06:41:59.358Z,2.90
2019-02-23T06:46:03.107Z,2.90
2019-02-23T06:54:10.203Z,3.10
2019-02-23T06:58:13.918Z,3.10
2019-02-23T07:06:21.487Z,3.20
2019-02-23T07:22:35.198Z,3.30
2019-02-23T07:26:38.938Z,3.30
2019-02-23T07:34:45.971Z,3.50
2019-02-23T07:38:50.166Z,3.60
2019-02-23T07:51:00.854Z,3.90
2019-02-23T08:15:21.334Z,4.50
2019-02-23T08:23:28.746Z,4.80
2019-02-23T08:27:32.463Z,4.80
2019-02-23T08:59:59.526Z,5.70
2019-02-23T09:16:13.182Z,6.30
2019-02-23T09:24:20.511Z,6.60
2019-02-23T09:36:30.925Z,7.60
2019-02-23T09:44:37.950Z,9.70
2019-02-23T09:48:41.678Z,10.60
2019-02-23T09:56:48.721Z,12.20
2019-02-23T10:04:56.060Z,13.30
2019-02-23T10:25:13.247Z,18.10
2019-02-23T10:33:20.279Z,18.80
2019-02-23T10:45:30.962Z,19.50
2019-02-23T11:09:51.434Z,20.20
2019-02-23T11:22:02.158Z,21.00
2019-02-23T11:38:16.279Z,20.60
2019-02-23T11:54:30.047Z,20.70
2019-02-23T11:58:33.778Z,20.60
2019-02-23T12:43:11.619Z,20.70
2019-02-23T13:11:36.602Z,20.10
2019-02-23T13:33:03.475Z,19.90
2019-02-23T13:41:54.710Z,19.90
2019-02-23T13:55:20.536Z,21.90
2019-02-23T14:04:17.035Z,21.00
2019-02-23T14:13:25.515Z,20.30
2019-02-23T14:43:53.148Z,17.80
2019-02-23T14:48:21.837Z,17.70
2019-02-23T14:52:51.978Z,18.50
2019-02-23T14:57:31.794Z,18.20
2019-02-23T15:18:56.067Z,17.80
2019-02-23T15:36:19.582Z,16.20
2019-02-23T15:49:34.241Z,14.70
2019-02-23T16:01:44.602Z,13.30
2019-02-23T16:05:48.332Z,13.10
2019-02-23T16:13:55.666Z,12.50
2019-02-23T16:26:06.158Z,11.70
2019-02-23T16:30:10.098Z,11.60
2019-02-23T16:46:24.130Z,10.90
2019-02-23T17:02:37.751Z,10.20
2019-02-23T17:06:41.507Z,10.00
2019-02-23T17:14:48.532Z,9.70
2019-02-23T17:35:06.623Z,9.00
2019-02-23T17:39:10.810Z,8.80
2019-02-23T17:47:18.188Z,8.50
2019-02-23T17:59:28.539Z,8.20
2019-02-23T18:07:35.870Z,7.90
2019-02-23T18:19:46.755Z,7.60
2019-02-23T18:23:50.994Z,7.60
2019-02-23T19:08:31.202Z,7.30
2019-02-23T19:12:34.914Z,7.10
2019-02-23T19:20:42.002Z,7.00
2019-02-23T19:36:55.639Z,6.90
2019-02-23T19:45:02.733Z,6.70
2019-02-23T19:49:06.466Z,6.70
2019-02-23T19:57:13.482Z,6.50
2019-02-23T20:01:17.230Z,6.40
2019-02-23T20:09:24.286Z,6.30
2019-02-23T20:33:44.863Z,5.80
2019-02-23T20:37:48.622Z,5.80
2019-02-23T20:45:55.651Z,5.60
2019-02-23T20:49:59.611Z,5.60
2019-02-23T21:10:16.691Z,5.20
2019-02-23T21:22:27.078Z,5.10
2019-02-23T22:03:01.467Z,4.50
2019-02-23T22:07:05.198Z,4.40
2019-02-23T22:23:19.859Z,4.00
2019-02-23T22:35:33.027Z,3.80
2019-02-23T22:39:37.038Z,3.70
2019-02-23T22:43:40.757Z,3.70
2019-02-23T22:47:44.495Z,3.70
2019-02-23T22:55:51.516Z,3.80
2019-02-23T23:12:05.666Z,3.90
2019-02-23T23:24:16.182Z,3.70
2019-02-23T23:32:23.205Z,3.80
2019-02-23T23:36:26.929Z,3.80
